createdAt,value
2022-08-22T00:05:32.424Z,71.37
2022-08-22T00:15:43.637Z,71.03
2022-08-22T00:25:50.488Z,71.23
2022-08-22T00:35:56.631Z,70.84
2022-08-22T00:46:02.479Z,71.93
2022-08-22T00:56:10.388Z,71.61
2022-08-22T01:06:16.304Z,71.27
2022-08-22T01:16:24.772Z,71.08
2022-08-22T01:26:31.930Z,71.30
2022-08-22T01:36:38.830Z,70.79
2022-08-22T01:46:45.863Z,71.15
2022-08-22T01:56:53.019Z,70.66
2022-08-22T02:07:00.343Z,70.80
2022-08-22T02:17:08.171Z,71.32
2022-08-22T02:27:13.875Z,71.07
2022-08-22T02:37:19.951Z,70.28
2022-08-22T02:47:26.023Z,69.77
2022-08-22T02:57:34.544Z,69.32
2022-08-22T03:07:44.098Z,69.31
2022-08-22T03:17:50.418Z,69.22
2022-08-22T03:27:56.184Z,69.31
2022-08-22T03:38:03.700Z,69.24
2022-08-22T03:48:09.778Z,69.28
2022-08-22T03:58:27.709Z,70.49
2022-08-22T04:08:27.528Z,72.40
2022-08-22T04:18:34.312Z,71.54
2022-08-22T04:28:40.574Z,70.78
2022-08-22T04:38:47.068Z,70.78
2022-08-22T04:48:53.220Z,70.71
2022-08-22T04:59:00.133Z,70.11
2022-08-22T05:09:11.778Z,71.89
2022-08-22T05:19:29.628Z,71.72
2022-08-22T05:29:33.342Z,71.74
2022-08-22T05:39:39.635Z,72.18
2022-08-22T05:49:45.918Z,71.40
2022-08-22T05:59:53.005Z,70.50
2022-08-22T06:09:58.703Z,70.30
2022-08-22T06:20:05.212Z,70.56
2022-08-22T06:30:10.940Z,69.78
2022-08-22T06:40:19.101Z,70.30
2022-08-22T06:50:25.053Z,71.40
2022-08-22T07:00:32.673Z,71.92
2022-08-22T07:10:38.700Z,71.78
2022-08-22T07:20:44.972Z,70.87
2022-08-22T07:30:51.325Z,71.16
2022-08-22T07:40:57.535Z,71.29
2022-08-22T07:51:03.887Z,71.01
2022-08-22T08:01:09.821Z,70.53
2022-08-22T08:11:15.511Z,68.78
2022-08-22T08:21:21.352Z,69.25
2022-08-22T08:31:27.061Z,68.70
2022-08-22T08:41:32.939Z,68.35
2022-08-22T08:51:38.852Z,68.48
2022-08-22T09:01:45.901Z,68.56
2022-08-22T09:11:52.079Z,68.25
2022-08-22T09:21:57.891Z,68.02
2022-08-22T09:32:03.789Z,66.96
2022-08-22T09:42:09.695Z,67.02
2022-08-22T09:52:32.050Z,67.96
2022-08-22T10:02:26.023Z,67.51
2022-08-22T10:12:36.058Z,66.61
2022-08-22T10:22:44.608Z,66.22
2022-08-22T10:32:50.944Z,66.02
2022-08-22T10:42:59.171Z,59.68
2022-08-22T10:53:05.805Z,56.63
2022-08-22T11:03:14.517Z,62.79
2022-08-22T11:13:21.267Z,55.62
2022-08-22T11:23:28.168Z,58.05
2022-08-22T11:33:46.203Z,63.45
2022-08-22T11:43:43.597Z,53.35
2022-08-22T11:53:50.384Z,49.82
2022-08-22T12:03:58.542Z,53.04
2022-08-22T12:14:06.427Z,54.16
2022-08-22T12:24:19.146Z,52.52
2022-08-22T12:34:23.606Z,50.93
2022-08-22T12:44:30.427Z,52.39
2022-08-22T12:54:37.046Z,52.40
2022-08-22T13:04:42.878Z,53.37
2022-08-22T13:14:48.483Z,56.91
2022-08-22T13:24:55.321Z,59.16
2022-08-22T13:35:00.910Z,59.30
2022-08-22T13:45:07.338Z,60.56
2022-08-22T13:55:13.683Z,60.47
2022-08-22T14:05:20.060Z,60.05
2022-08-22T14:15:32.320Z,59.51
2022-08-22T14:25:38.862Z,60.03
2022-08-22T14:35:45.574Z,61.32
2022-08-22T14:45:57.244Z,61.73
2022-08-22T14:56:08.432Z,62.42
2022-08-22T15:06:16.679Z,62.36
2022-08-22T15:16:27.467Z,61.81
2022-08-22T15:26:33.118Z,62.81
2022-08-22T15:36:39.057Z,59.46
2022-08-22T15:46:44.767Z,62.42
2022-08-22T15:56:52.353Z,63.69
2022-08-22T16:06:58.182Z,64.44
2022-08-22T16:17:03.805Z,64.23
2022-08-22T16:27:09.138Z,64.71
2022-08-22T16:37:15.146Z,65.05
2022-08-22T16:47:21.072Z,65.80
2022-08-22T16:57:26.801Z,66.58
2022-08-22T17:07:32.251Z,66.90
2022-08-22T17:17:38.102Z,67.36
2022-08-22T17:27:43.915Z,67.74
2022-08-22T17:37:49.822Z,68.04
2022-08-22T17:47:55.687Z,68.57
2022-08-22T17:58:01.698Z,68.89
2022-08-22T18:09:38.921Z,69.05
2022-08-22T18:19:43.615Z,69.67
2022-08-22T18:29:49.637Z,70.28
2022-08-22T18:39:55.512Z,70.78
2022-08-22T18:50:01.450Z,70.74
2022-08-22T19:00:07.055Z,67.77
2022-08-22T19:10:12.451Z,66.86
2022-08-22T19:20:17.716Z,67.07
2022-08-22T19:30:23.309Z,66.13
2022-08-22T19:40:28.841Z,67.93
2022-08-22T19:50:34.228Z,67.76
2022-08-22T20:00:39.630Z,67.76
2022-08-22T20:10:45.019Z,67.79
2022-08-22T20:20:50.420Z,66.74
2022-08-22T20:30:55.929Z,66.07
2022-08-22T20:41:01.491Z,67.40
2022-08-22T20:51:07.645Z,66.91
2022-08-22T21:01:12.914Z,67.75
2022-08-22T21:11:20.809Z,67.16
2022-08-22T21:21:26.097Z,67.43
2022-08-22T21:31:33.529Z,67.17
2022-08-22T21:41:38.828Z,67.40
2022-08-22T21:51:45.627Z,67.82
2022-08-22T22:01:51.232Z,67.87
2022-08-22T22:11:59.227Z,68.12
2022-08-22T22:22:05.167Z,68.07
2022-08-22T22:32:12.012Z,68.47
2022-08-22T22:42:17.575Z,68.13
2022-08-22T22:52:25.183Z,69.24
2022-08-22T23:02:31.285Z,69.95
2022-08-22T23:12:38.924Z,69.25
2022-08-22T23:22:44.757Z,70.62
2022-08-22T23:32:51.820Z,70.38
2022-08-22T23:42:57.349Z,71.20
2022-08-22T23:53:05.007Z,70.07
